createdAt,value
2019-01-25T00:00:12.595Z,-2.80
2019-01-25T00:03:19.091Z,-2.50
2019-01-25T00:06:24.294Z,-2.70
2019-01-25T00:09:29.243Z,-2.80
2019-01-25T00:12:34.228Z,-2.80
2019-01-25T00:15:39.156Z,-2.80
2019-01-25T00:18:44.086Z,-2.60
2019-01-25T00:21:49.059Z,-2.80
2019-01-25T00:24:54.073Z,-2.70
2019-01-25T00:27:58.994Z,-2.70
2019-01-25T00:31:04.047Z,-2.60
2019-01-25T00:34:09.072Z,-2.70
2019-01-25T00:37:14.082Z,-2.70
2019-01-25T00:40:20.084Z,-2.50
2019-01-25T00:43:25.023Z,-2.40
2019-01-25T00:46:29.931Z,-2.50
2019-01-25T00:49:35.964Z,-2.60
2019-01-25T00:52:40.844Z,-2.40
2019-01-25T00:55:45.734Z,-2.70
2019-01-25T00:58:50.694Z,-2.60
2019-01-25T01:01:55.601Z,-2.50
2019-01-25T01:05:00.683Z,-2.80
2019-01-25T01:08:05.906Z,-2.70
2019-01-25T01:11:10.768Z,-2.70
2019-01-25T01:14:15.675Z,-2.60
2019-01-25T01:17:20.710Z,-2.80
2019-01-25T01:20:25.670Z,-2.60
2019-01-25T01:23:30.637Z,-2.70
2019-01-25T01:26:35.588Z,-2.70
2019-01-25T01:29:40.548Z,-2.70
2019-01-25T01:32:45.432Z,-2.60
2019-01-25T01:35:50.325Z,-2.50
2019-01-25T01:38:55.220Z,-2.70
2019-01-25T01:42:00.108Z,-2.60
2019-01-25T01:45:07.149Z,-2.40
2019-01-25T01:48:12.102Z,-2.60
2019-01-25T01:51:16.938Z,-2.40
2019-01-25T01:54:21.858Z,-2.50
2019-01-25T01:57:26.734Z,-2.70
2019-01-25T02:00:31.574Z,-2.40
2019-01-25T02:03:36.477Z,-2.70
2019-01-25T02:06:41.318Z,-2.50
2019-01-25T02:09:46.191Z,-2.40
2019-01-25T02:12:51.276Z,-2.60
2019-01-25T02:15:56.764Z,-2.50
2019-01-25T02:19:01.646Z,-2.30
2019-01-25T02:22:06.677Z,-2.80
2019-01-25T02:25:11.602Z,-2.60
2019-01-25T02:28:16.568Z,-2.70
2019-01-25T02:31:21.476Z,-2.80
2019-01-25T02:34:26.315Z,-2.60
2019-01-25T02:37:31.182Z,-2.60
2019-01-25T02:40:39.279Z,-2.40
2019-01-25T02:43:42.671Z,-2.70
2019-01-25T02:46:47.658Z,-2.70
2019-01-25T02:49:53.277Z,-2.60
2019-01-25T02:53:03.750Z,-2.60
2019-01-25T02:56:05.564Z,-2.50
2019-01-25T02:59:10.602Z,-2.40
2019-01-25T03:02:15.550Z,-2.30
2019-01-25T03:05:22.062Z,-2.60
2019-01-25T03:08:26.922Z,-2.40
2019-01-25T03:11:31.793Z,-2.50
2019-01-25T03:14:36.712Z,-2.50
2019-01-25T03:17:41.662Z,-2.50
2019-01-25T03:20:46.523Z,-2.30
2019-01-25T03:23:51.447Z,-2.50
2019-01-25T03:26:56.376Z,-2.40
2019-01-25T03:30:01.390Z,-2.50
2019-01-25T03:33:06.879Z,-2.40
2019-01-25T03:36:11.803Z,-2.50
2019-01-25T03:39:16.659Z,-2.50
2019-01-25T03:42:21.488Z,-2.50
2019-01-25T03:45:26.730Z,-2.50
2019-01-25T03:48:31.623Z,-2.30
2019-01-25T03:51:36.473Z,-2.50
2019-01-25T03:54:41.330Z,-2.50
2019-01-25T03:57:46.558Z,-2.50
2019-01-25T04:00:51.550Z,-2.50
2019-01-25T04:03:56.527Z,-2.40
2019-01-25T04:07:01.546Z,-2.60
2019-01-25T04:10:09.570Z,-2.60
2019-01-25T04:13:14.444Z,-2.60
2019-01-25T04:16:19.309Z,-2.60
2019-01-25T04:19:24.176Z,-2.50
2019-01-25T04:22:29.063Z,-2.50
2019-01-25T04:25:33.897Z,-2.60
2019-01-25T04:28:38.774Z,-2.50
2019-01-25T04:31:43.708Z,-2.50
2019-01-25T04:34:48.529Z,-2.50
2019-01-25T04:37:53.725Z,-2.50
2019-01-25T04:40:58.609Z,-2.40
2019-01-25T04:44:03.509Z,-2.60
2019-01-25T04:47:08.374Z,-2.50
2019-01-25T04:50:19.348Z,-2.60
2019-01-25T04:53:24.381Z,-2.50
2019-01-25T04:56:33.960Z,-2.60
2019-01-25T04:59:38.941Z,-2.50
2019-01-25T05:02:52.325Z,-2.50
2019-01-25T05:05:57.208Z,-2.60
2019-01-25T05:09:02.124Z,-2.50
2019-01-25T05:12:07.347Z,-2.50
2019-01-25T05:15:12.282Z,-2.50
2019-01-25T05:18:17.129Z,-2.40
2019-01-25T05:21:22.237Z,-2.40
2019-01-25T05:24:27.147Z,-2.20
2019-01-25T05:27:32.042Z,-2.10
2019-01-25T05:30:36.962Z,-2.40
2019-01-25T05:33:44.603Z,-2.10
2019-01-25T05:36:49.448Z,-2.20
2019-01-25T05:39:54.446Z,-2.40
2019-01-25T05:42:59.334Z,-2.40
2019-01-25T05:46:04.295Z,-2.40
2019-01-25T05:49:09.150Z,-2.50
2019-01-25T05:52:17.354Z,-2.40
2019-01-25T05:55:22.863Z,-2.40
2019-01-25T05:58:27.728Z,-2.50
2019-01-25T06:01:32.654Z,-2.30
2019-01-25T06:04:38.992Z,-2.20
2019-01-25T06:07:44.129Z,-2.30
2019-01-25T06:10:49.148Z,-2.40
2019-01-25T06:13:54.901Z,-2.40
2019-01-25T06:16:59.754Z,-2.30
2019-01-25T06:20:08.041Z,-2.50
2019-01-25T06:23:12.957Z,-2.50
2019-01-25T06:26:18.802Z,-2.50
2019-01-25T06:29:23.725Z,-2.50
2019-01-25T06:32:28.617Z,-2.50
2019-01-25T06:35:33.478Z,-2.50
2019-01-25T06:38:38.299Z,-2.40
2019-01-25T06:41:44.157Z,-2.30
2019-01-25T06:44:50.365Z,-2.30
2019-01-25T06:47:55.198Z,-2.30
2019-01-25T06:51:00.051Z,-2.50
2019-01-25T06:54:04.938Z,-2.40
2019-01-25T06:57:12.519Z,-2.40
2019-01-25T07:00:25.822Z,-2.40
2019-01-25T07:03:30.810Z,-2.20
2019-01-25T07:06:35.734Z,-2.40
2019-01-25T07:09:40.599Z,-2.30
2019-01-25T07:12:45.516Z,-2.30
2019-01-25T07:15:50.346Z,-2.30
2019-01-25T07:18:55.198Z,-2.30
2019-01-25T07:22:00.045Z,-2.30
2019-01-25T07:25:08.113Z,-2.30
2019-01-25T07:28:13.128Z,-2.40
2019-01-25T07:31:19.126Z,-2.30
2019-01-25T07:34:24.054Z,-2.20
2019-01-25T07:37:28.968Z,-2.40
2019-01-25T07:40:33.926Z,-2.30
2019-01-25T07:43:38.844Z,-2.40
2019-01-25T07:46:43.704Z,-2.40
2019-01-25T07:49:48.619Z,-2.30
2019-01-25T07:52:53.574Z,-2.40
2019-01-25T07:55:58.509Z,-2.20
2019-01-25T07:59:03.511Z,-2.40
2019-01-25T08:02:08.421Z,-2.50
2019-01-25T08:05:13.561Z,-2.40
2019-01-25T08:08:18.495Z,-2.50
2019-01-25T08:11:23.438Z,-2.60
2019-01-25T08:14:28.266Z,-2.50
2019-01-25T08:17:33.115Z,-2.50
2019-01-25T08:20:38.091Z,-2.50
2019-01-25T08:23:43.243Z,-2.50
2019-01-25T08:26:48.203Z,-2.60
2019-01-25T08:29:53.088Z,-2.30
2019-01-25T08:32:58.056Z,-2.30
2019-01-25T08:36:03.023Z,-2.30
2019-01-25T08:39:09.033Z,-2.20
2019-01-25T08:42:15.611Z,-2.50
2019-01-25T08:45:20.386Z,-2.20
2019-01-25T08:48:25.220Z,-2.40
2019-01-25T08:51:30.188Z,-2.30
2019-01-25T08:54:35.893Z,-2.40
2019-01-25T08:57:40.954Z,-2.60
2019-01-25T09:00:45.841Z,-2.20
2019-01-25T09:03:50.711Z,-2.30
2019-01-25T09:06:55.590Z,-2.20
2019-01-25T09:10:00.560Z,-2.30
2019-01-25T09:13:05.521Z,-2.10
2019-01-25T09:16:10.400Z,-2.40
2019-01-25T09:19:15.241Z,-2.20
2019-01-25T09:22:20.087Z,-2.30
2019-01-25T09:25:24.958Z,-2.30
2019-01-25T09:28:29.894Z,-2.40
2019-01-25T09:31:34.719Z,-2.00
2019-01-25T09:34:40.562Z,-2.20
2019-01-25T09:37:45.458Z,-1.90
2019-01-25T09:40:50.274Z,-1.60
2019-01-25T09:43:56.131Z,-1.50
2019-01-25T09:47:00.994Z,-1.50
2019-01-25T09:50:08.949Z,-1.90
2019-01-25T09:53:13.854Z,-1.70
2019-01-25T09:56:18.709Z,-2.10
2019-01-25T09:59:24.122Z,-2.10
2019-01-25T10:02:28.986Z,-2.00
2019-01-25T10:05:33.853Z,-2.10
2019-01-25T10:08:38.732Z,-1.90
2019-01-25T10:11:43.608Z,-2.00
2019-01-25T10:14:48.959Z,-1.90
2019-01-25T10:17:53.902Z,-1.80
2019-01-25T10:20:58.833Z,-2.00
2019-01-25T10:24:04.584Z,-2.00
2019-01-25T10:27:09.439Z,-1.90
2019-01-25T10:30:17.437Z,-1.90
2019-01-25T10:33:22.323Z,-1.40
2019-01-25T10:36:27.205Z,-1.70
2019-01-25T10:39:32.048Z,-1.40
2019-01-25T10:42:44.119Z,-1.20
2019-01-25T10:45:44.045Z,-1.00
2019-01-25T10:48:48.951Z,-0.80
2019-01-25T10:51:53.814Z,-0.90
2019-01-25T10:54:58.666Z,-0.90
2019-01-25T10:58:03.589Z,-0.40
2019-01-25T11:01:08.452Z,-0.20
2019-01-25T11:04:13.308Z,-0.20
2019-01-25T11:07:18.216Z,-0.10
2019-01-25T11:10:23.055Z,-0.40
2019-01-25T11:13:27.927Z,-0.30
2019-01-25T11:16:32.758Z,-0.70
2019-01-25T11:19:37.683Z,-0.20
2019-01-25T11:22:42.541Z,-0.30
2019-01-25T11:25:47.370Z,-0.50
2019-01-25T11:28:52.230Z,-0.20
2019-01-25T11:31:57.118Z,-0.20
2019-01-25T11:35:02.055Z,-0.50
2019-01-25T11:38:06.948Z,-0.90
2019-01-25T11:41:11.888Z,-0.90
2019-01-25T11:44:16.874Z,-0.90
2019-01-25T11:47:21.758Z,-1.00
2019-01-25T11:50:26.790Z,-0.80
2019-01-25T11:53:31.628Z,-0.70
2019-01-25T11:56:36.590Z,-1.00
2019-01-25T11:59:42.581Z,-0.80
2019-01-25T12:02:47.453Z,-0.80
2019-01-25T12:06:00.009Z,-1.00
2019-01-25T12:09:07.753Z,-1.20
2019-01-25T12:12:12.598Z,-1.20
2019-01-25T12:15:17.769Z,-1.40
2019-01-25T12:18:22.656Z,-1.40
2019-01-25T12:21:27.554Z,-1.40
2019-01-25T12:24:32.417Z,-1.50
2019-01-25T12:27:37.491Z,-1.60
2019-01-25T12:30:42.556Z,-1.20
2019-01-25T12:33:47.767Z,-1.20
2019-01-25T12:36:52.697Z,-1.00
2019-01-25T12:39:57.556Z,-1.20
2019-01-25T12:43:02.405Z,-1.10
2019-01-25T12:46:08.040Z,-1.30
2019-01-25T12:49:12.891Z,-1.20
2019-01-25T12:52:17.745Z,-1.10
2019-01-25T12:55:23.919Z,-1.20
2019-01-25T12:58:30.721Z,-1.00
2019-01-25T13:01:35.507Z,-0.90
2019-01-25T13:04:40.421Z,-0.90
2019-01-25T13:07:45.351Z,-1.10
2019-01-25T13:10:50.257Z,-1.10
2019-01-25T13:13:55.121Z,-1.00
2019-01-25T13:16:59.980Z,-1.10
2019-01-25T13:20:10.480Z,-1.20
2019-01-25T13:23:15.342Z,-1.10
2019-01-25T13:26:20.207Z,-1.10
2019-01-25T13:29:26.278Z,-1.20
2019-01-25T13:32:31.491Z,-1.50
2019-01-25T13:35:36.462Z,-1.50
2019-01-25T13:38:41.364Z,-1.40
2019-01-25T13:41:46.222Z,-1.60
2019-01-25T13:44:51.962Z,-1.50
2019-01-25T13:47:56.878Z,-1.40
2019-01-25T13:51:01.771Z,-1.40
2019-01-25T13:54:07.780Z,-1.40
2019-01-25T13:57:12.734Z,-1.50
2019-01-25T14:00:28.636Z,-1.70
2019-01-25T14:03:33.568Z,-1.40
2019-01-25T14:06:38.535Z,-1.40
2019-01-25T14:09:43.454Z,-1.50
2019-01-25T14:12:48.334Z,-1.40
2019-01-25T14:15:53.483Z,-1.30
2019-01-25T14:18:58.362Z,-1.30
2019-01-25T14:22:03.189Z,-1.20
2019-01-25T14:25:09.966Z,-1.40
2019-01-25T14:28:14.834Z,-1.70
2019-01-25T14:31:19.682Z,-1.30
2019-01-25T14:34:24.602Z,-1.40
2019-01-25T14:37:29.457Z,-1.40
2019-01-25T14:40:34.334Z,-1.60
2019-01-25T14:43:39.222Z,-1.50
2019-01-25T14:46:44.142Z,-1.60
2019-01-25T14:49:49.951Z,-1.50
2019-01-25T14:52:54.797Z,-1.40
2019-01-25T14:55:59.656Z,-1.60
2019-01-25T14:59:05.664Z,-1.50
2019-01-25T15:02:10.522Z,-1.40
2019-01-25T15:05:17.122Z,-1.50
2019-01-25T15:08:22.070Z,-1.50
2019-01-25T15:11:27.001Z,-1.40
2019-01-25T15:14:31.898Z,-1.50
2019-01-25T15:17:36.776Z,-1.40
2019-01-25T15:20:42.818Z,-1.50
2019-01-25T15:23:47.694Z,-1.40
2019-01-25T15:26:52.698Z,-1.40
2019-01-25T15:29:57.746Z,-1.40
2019-01-25T15:33:02.609Z,-1.40
2019-01-25T15:36:07.574Z,-1.60
2019-01-25T15:39:13.129Z,-1.40
2019-01-25T15:42:17.975Z,-1.50
2019-01-25T15:45:23.349Z,-1.60
2019-01-25T15:48:28.247Z,-1.70
2019-01-25T15:51:33.083Z,-1.60
2019-01-25T15:54:37.897Z,-1.50
2019-01-25T15:57:42.775Z,-1.90
2019-01-25T16:00:47.646Z,-1.90
2019-01-25T16:03:52.520Z,-1.70
2019-01-25T16:06:57.456Z,-1.90
2019-01-25T16:10:02.386Z,-2.10
2019-01-25T16:13:07.239Z,-1.70
2019-01-25T16:16:12.194Z,-2.10
2019-01-25T16:19:17.068Z,-2.00
2019-01-25T16:22:22.010Z,-2.10
2019-01-25T16:25:31.615Z,-1.90
2019-01-25T16:28:36.523Z,-2.10
2019-01-25T16:31:41.447Z,-2.10
2019-01-25T16:34:46.294Z,-1.90
2019-01-25T16:37:51.126Z,-1.80
2019-01-25T16:40:56.003Z,-1.90
2019-01-25T16:44:00.835Z,-1.60
2019-01-25T16:47:05.675Z,-1.80
2019-01-25T16:50:10.898Z,-1.70
2019-01-25T16:53:15.825Z,-1.70
2019-01-25T16:56:20.686Z,-1.80
2019-01-25T16:59:25.541Z,-1.80
2019-01-25T17:02:30.397Z,-1.90
2019-01-25T17:05:35.629Z,-1.60
2019-01-25T17:08:40.590Z,-1.90
2019-01-25T17:11:45.539Z,-1.60
2019-01-25T17:14:50.402Z,-1.90
2019-01-25T17:17:55.302Z,-1.60
2019-01-25T17:21:00.171Z,-1.60
2019-01-25T17:24:05.018Z,-1.50
2019-01-25T17:27:10.632Z,-1.80
2019-01-25T17:30:26.667Z,-1.70
2019-01-25T17:33:32.525Z,-1.60
2019-01-25T17:36:37.460Z,-1.50
2019-01-25T17:39:42.362Z,-1.70
2019-01-25T17:42:47.215Z,-1.60
2019-01-25T17:45:53.007Z,-1.50
2019-01-25T17:48:57.944Z,-1.90
2019-01-25T17:52:02.824Z,-1.60
2019-01-25T17:55:10.478Z,-1.50
2019-01-25T17:58:15.360Z,-1.60
2019-01-25T18:01:20.202Z,-1.80
2019-01-25T18:04:25.118Z,-1.60
2019-01-25T18:07:29.993Z,-1.90
2019-01-25T18:10:34.880Z,-1.90
2019-01-25T18:13:39.750Z,-1.50
2019-01-25T18:16:44.615Z,-1.90
2019-01-25T18:19:49.581Z,-1.60
2019-01-25T18:22:54.819Z,-1.70
2019-01-25T18:25:59.846Z,-1.60
2019-01-25T18:29:04.844Z,-1.80
2019-01-25T18:32:09.706Z,-1.70
2019-01-25T18:35:14.558Z,-1.90
2019-01-25T18:38:19.569Z,-1.90
2019-01-25T18:41:24.922Z,-1.60
2019-01-25T18:44:29.902Z,-1.80
2019-01-25T18:47:36.137Z,-1.60
2019-01-25T18:50:41.191Z,-1.90
2019-01-25T18:53:46.120Z,-2.00
2019-01-25T18:56:51.061Z,-1.80
2019-01-25T18:59:56.242Z,-1.60
2019-01-25T19:03:01.114Z,-1.60
2019-01-25T19:06:05.949Z,-1.90
2019-01-25T19:09:11.245Z,-1.60
2019-01-25T19:12:16.072Z,-1.60
2019-01-25T19:15:23.982Z,-1.80
2019-01-25T19:18:28.820Z,-1.50
2019-01-25T19:21:33.678Z,-1.50
2019-01-25T19:24:38.538Z,-1.40
2019-01-25T19:27:43.394Z,-1.50
2019-01-25T19:30:48.288Z,-1.60
2019-01-25T19:33:53.168Z,-1.50
2019-01-25T19:36:58.919Z,-1.40
2019-01-25T19:40:05.624Z,-1.50
2019-01-25T19:43:10.511Z,-1.30
2019-01-25T19:46:15.368Z,-1.50
2019-01-25T19:49:20.229Z,-1.70
2019-01-25T19:52:25.063Z,-1.70
2019-01-25T19:55:33.918Z,-1.80
2019-01-25T19:58:38.760Z,-1.80
2019-01-25T20:01:43.690Z,-1.50
2019-01-25T20:04:48.591Z,-1.70
2019-01-25T20:07:53.447Z,-1.70
2019-01-25T20:10:58.280Z,-1.90
2019-01-25T20:14:03.140Z,-1.80
2019-01-25T20:17:07.998Z,-1.80
2019-01-25T20:20:15.757Z,-1.60
2019-01-25T20:23:20.619Z,-1.80
2019-01-25T20:26:25.584Z,-1.90
2019-01-25T20:29:30.555Z,-1.90
2019-01-25T20:32:35.423Z,-1.80
2019-01-25T20:35:42.481Z,-2.00
2019-01-25T20:38:47.362Z,-1.90
2019-01-25T20:41:52.212Z,-2.00
2019-01-25T20:44:57.062Z,-1.70
2019-01-25T20:48:01.982Z,-1.90
2019-01-25T20:51:06.835Z,-1.60
2019-01-25T20:54:11.709Z,-1.70
2019-01-25T20:57:16.558Z,-1.70
2019-01-25T21:00:26.824Z,-1.80
2019-01-25T21:03:31.726Z,-1.60
2019-01-25T21:06:36.582Z,-1.90
2019-01-25T21:09:41.442Z,-1.90
2019-01-25T21:12:46.651Z,-1.90
2019-01-25T21:15:51.485Z,-1.90
2019-01-25T21:18:56.341Z,-1.90
2019-01-25T21:22:01.258Z,-1.60
2019-01-25T21:25:07.052Z,-1.90
2019-01-25T21:28:12.443Z,-1.90
2019-01-25T21:31:17.337Z,-1.70
2019-01-25T21:34:22.200Z,-1.70
2019-01-25T21:37:27.059Z,-2.00
2019-01-25T21:40:33.467Z,-1.80
2019-01-25T21:43:38.330Z,-2.00
2019-01-25T21:46:43.158Z,-1.70
2019-01-25T21:49:48.006Z,-2.00
2019-01-25T21:52:52.883Z,-2.10
2019-01-25T21:55:57.746Z,-1.80
2019-01-25T21:59:02.619Z,-1.70
2019-01-25T22:02:08.850Z,-2.00
2019-01-25T22:05:13.876Z,-1.80
2019-01-25T22:08:18.727Z,-1.80
2019-01-25T22:11:23.825Z,-2.00
2019-01-25T22:14:28.660Z,-1.60
2019-01-25T22:17:33.602Z,-1.90
2019-01-25T22:20:38.440Z,-1.90
2019-01-25T22:23:43.278Z,-2.00
2019-01-25T22:26:48.111Z,-1.90
2019-01-25T22:29:53.022Z,-2.00
2019-01-25T22:32:57.917Z,-2.00
2019-01-25T22:36:02.758Z,-1.80
2019-01-25T22:39:07.990Z,-1.80
2019-01-25T22:42:13.086Z,-1.80
2019-01-25T22:45:20.393Z,-1.60
2019-01-25T22:48:25.289Z,-1.90
2019-01-25T22:51:30.125Z,-1.50
2019-01-25T22:54:34.974Z,-1.70
2019-01-25T22:57:39.878Z,-1.70
2019-01-25T23:00:55.104Z,-1.90
2019-01-25T23:04:11.635Z,-1.60
2019-01-25T23:07:16.626Z,-1.90
2019-01-25T23:10:22.215Z,-1.70
2019-01-25T23:13:27.142Z,-2.00
2019-01-25T23:16:32.014Z,-2.00
2019-01-25T23:19:36.843Z,-1.90
2019-01-25T23:22:42.441Z,-2.00
2019-01-25T23:25:47.277Z,-2.00
2019-01-25T23:28:52.158Z,-2.00
2019-01-25T23:31:57.117Z,-2.00
2019-01-25T23:35:01.944Z,-2.00
2019-01-25T23:38:07.773Z,-2.10
2019-01-25T23:41:12.644Z,-2.10
2019-01-25T23:44:17.566Z,-2.10
2019-01-25T23:47:24.324Z,-2.00
2019-01-25T23:50:29.198Z,-2.00
2019-01-25T23:53:34.052Z,-2.10
2019-01-25T23:56:38.892Z,-2.00
2019-01-25T23:59:43.761Z,-1.90
